sensor_id;sensor_type;location;lat;lon;timestamp;P1;durP1;ratioP1;P2;durP2;ratioP2
19278;SDS011;9773;47.062;15.446;2022-11-20T00:01:04;20.03;;;10.97;;
19278;SDS011;9773;47.062;15.446;2022-11-20T00:03:38;18.77;;;11.07;;
19278;SDS011;9773;47.062;15.446;2022-11-20T00:06:05;20.57;;;11.30;;
19278;SDS011;9773;47.062;15.446;2022-11-20T00:08:33;21.30;;;12.00;;
19278;SDS011;9773;47.062;15.446;2022-11-20T00:11:18;16.77;;;10.67;;
19278;SDS011;9773;47.062;15.446;2022-11-20T00:13:47;18.00;;;10.10;;
19278;SDS011;9773;47.062;15.446;2022-11-20T00:16:16;14.63;;;9.93;;
19278;SDS011;9773;47.062;15.446;2022-11-20T00:18:43;15.00;;;9.37;;
19278;SDS011;9773;47.062;15.446;2022-11-20T00:21:13;15.00;;;9.80;;
19278;SDS011;9773;47.062;15.446;2022-11-20T00:23:44;14.80;;;9.77;;
19278;SDS011;9773;47.062;15.446;2022-11-20T00:26:12;13.53;;;8.80;;
19278;SDS011;9773;47.062;15.446;2022-11-20T00:28:39;14.10;;;9.43;;
19278;SDS011;9773;47.062;15.446;2022-11-20T00:31:07;12.97;;;9.07;;
19278;SDS011;9773;47.062;15.446;2022-11-20T00:33:35;12.73;;;8.97;;
19278;SDS011;9773;47.062;15.446;2022-11-20T00:36:01;12.77;;;8.40;;
19278;SDS011;9773;47.062;15.446;2022-11-20T00:38:29;12.63;;;8.17;;
19278;SDS011;9773;47.062;15.446;2022-11-20T00:40:56;12.77;;;8.40;;
19278;SDS011;9773;47.062;15.446;2022-11-20T00:43:23;13.50;;;8.63;;
19278;SDS011;9773;47.062;15.446;2022-11-20T00:45:49;13.40;;;8.87;;
19278;SDS011;9773;47.062;15.446;2022-11-20T00:48:15;15.43;;;8.93;;
19278;SDS011;9773;47.062;15.446;2022-11-20T00:50:43;15.17;;;9.40;;
19278;SDS011;9773;47.062;15.446;2022-11-20T00:53:09;12.77;;;8.67;;
19278;SDS011;9773;47.062;15.446;2022-11-20T00:55:35;14.10;;;9.50;;
19278;SDS011;9773;47.062;15.446;2022-11-20T00:58:01;12.23;;;8.73;;
19278;SDS011;9773;47.062;15.446;2022-11-20T01:00:26;13.13;;;9.33;;
19278;SDS011;9773;47.062;15.446;2022-11-20T01:02:52;13.87;;;9.50;;
19278;SDS011;9773;47.062;15.446;2022-11-20T01:05:22;15.40;;;9.30;;
19278;SDS011;9773;47.062;15.446;2022-11-20T01:07:47;15.33;;;9.17;;
19278;SDS011;9773;47.062;15.446;2022-11-20T01:10:13;14.23;;;9.50;;
19278;SDS011;9773;47.062;15.446;2022-11-20T01:12:39;14.00;;;9.17;;
19278;SDS011;9773;47.062;15.446;2022-11-20T01:15:05;13.67;;;9.20;;
19278;SDS011;9773;47.062;15.446;2022-11-20T01:17:31;14.63;;;9.10;;
19278;SDS011;9773;47.062;15.446;2022-11-20T01:19:57;12.27;;;8.53;;
19278;SDS011;9773;47.062;15.446;2022-11-20T01:22:23;13.77;;;8.77;;
19278;SDS011;9773;47.062;15.446;2022-11-20T01:24:49;10.80;;;7.77;;
19278;SDS011;9773;47.062;15.446;2022-11-20T01:27:15;10.47;;;8.00;;
19278;SDS011;9773;47.062;15.446;2022-11-20T01:29:41;10.40;;;8.13;;
19278;SDS011;9773;47.062;15.446;2022-11-20T01:32:06;10.80;;;7.97;;
19278;SDS011;9773;47.062;15.446;2022-11-20T01:34:32;11.37;;;7.60;;
19278;SDS011;9773;47.062;15.446;2022-11-20T01:36:58;10.40;;;7.17;;
19278;SDS011;9773;47.062;15.446;2022-11-20T01:39:24;9.17;;;7.13;;
19278;SDS011;9773;47.062;15.446;2022-11-20T01:41:53;12.23;;;8.17;;
19278;SDS011;9773;47.062;15.446;2022-11-20T01:44:52;7.40;;;5.93;;
19278;SDS011;9773;47.062;15.446;2022-11-20T01:47:29;8.50;;;6.67;;
19278;SDS011;9773;47.062;15.446;2022-11-20T01:49:56;7.33;;;6.23;;
19278;SDS011;9773;47.062;15.446;2022-11-20T01:52:30;8.90;;;6.60;;
19278;SDS011;9773;47.062;15.446;2022-11-20T01:55:26;8.17;;;6.23;;
19278;SDS011;9773;47.062;15.446;2022-11-20T01:57:59;10.53;;;6.60;;
19278;SDS011;9773;47.062;15.446;2022-11-20T02:00:27;7.57;;;6.33;;
19278;SDS011;9773;47.062;15.446;2022-11-20T02:03:03;7.83;;;6.10;;
19278;SDS011;9773;47.062;15.446;2022-11-20T02:05:53;7.37;;;5.90;;
19278;SDS011;9773;47.062;15.446;2022-11-20T02:08:24;7.03;;;6.23;;
19278;SDS011;9773;47.062;15.446;2022-11-20T02:10:50;7.77;;;5.87;;
19278;SDS011;9773;47.062;15.446;2022-11-20T02:13:16;8.43;;;6.37;;
19278;SDS011;9773;47.062;15.446;2022-11-20T02:16:01;7.50;;;6.13;;
19278;SDS011;9773;47.062;15.446;2022-11-20T02:18:28;8.67;;;6.50;;
19278;SDS011;9773;47.062;15.446;2022-11-20T02:20:57;7.43;;;6.17;;
19278;SDS011;9773;47.062;15.446;2022-11-20T02:23:32;8.13;;;6.80;;
19278;SDS011;9773;47.062;15.446;2022-11-20T02:26:09;10.53;;;6.57;;
19278;SDS011;9773;47.062;15.446;2022-11-20T02:28:37;9.43;;;6.43;;
19278;SDS011;9773;47.062;15.446;2022-11-20T02:31:04;8.87;;;6.23;;
19278;SDS011;9773;47.062;15.446;2022-11-20T02:33:29;6.80;;;6.07;;
19278;SDS011;9773;47.062;15.446;2022-11-20T02:35:55;7.40;;;6.10;;
19278;SDS011;9773;47.062;15.446;2022-11-20T02:38:21;8.43;;;6.00;;
19278;SDS011;9773;47.062;15.446;2022-11-20T02:40:47;9.60;;;6.73;;
19278;SDS011;9773;47.062;15.446;2022-11-20T02:43:13;8.30;;;6.47;;
19278;SDS011;9773;47.062;15.446;2022-11-20T02:45:44;8.63;;;6.80;;
19278;SDS011;9773;47.062;15.446;2022-11-20T02:48:10;7.63;;;6.40;;
19278;SDS011;9773;47.062;15.446;2022-11-20T02:50:37;8.70;;;6.77;;
19278;SDS011;9773;47.062;15.446;2022-11-20T02:53:08;7.83;;;6.63;;
19278;SDS011;9773;47.062;15.446;2022-11-20T02:55:33;9.20;;;6.40;;
19278;SDS011;9773;47.062;15.446;2022-11-20T02:58:04;8.50;;;6.67;;
19278;SDS011;9773;47.062;15.446;2022-11-20T03:00:30;8.33;;;6.60;;
19278;SDS011;9773;47.062;15.446;2022-11-20T03:03:02;8.20;;;6.13;;
19278;SDS011;9773;47.062;15.446;2022-11-20T03:05:31;10.43;;;6.50;;
19278;SDS011;9773;47.062;15.446;2022-11-20T03:07:57;7.00;;;5.53;;
19278;SDS011;9773;47.062;15.446;2022-11-20T03:10:23;9.20;;;6.77;;
19278;SDS011;9773;47.062;15.446;2022-11-20T03:12:52;9.23;;;6.90;;
19278;SDS011;9773;47.062;15.446;2022-11-20T03:15:20;7.10;;;6.40;;
19278;SDS011;9773;47.062;15.446;2022-11-20T03:17:47;9.40;;;6.17;;
19278;SDS011;9773;47.062;15.446;2022-11-20T03:20:12;10.80;;;6.93;;
19278;SDS011;9773;47.062;15.446;2022-11-20T03:22:38;7.33;;;6.50;;
19278;SDS011;9773;47.062;15.446;2022-11-20T03:25:04;8.67;;;6.67;;
19278;SDS011;9773;47.062;15.446;2022-11-20T03:27:33;8.80;;;6.33;;
19278;SDS011;9773;47.062;15.446;2022-11-20T03:30:00;9.00;;;6.70;;
19278;SDS011;9773;47.062;15.446;2022-11-20T03:32:26;7.60;;;6.50;;
19278;SDS011;9773;47.062;15.446;2022-11-20T03:34:54;9.10;;;6.27;;
19278;SDS011;9773;47.062;15.446;2022-11-20T03:37:29;7.97;;;6.40;;
19278;SDS011;9773;47.062;15.446;2022-11-20T03:39:55;8.90;;;6.77;;
19278;SDS011;9773;47.062;15.446;2022-11-20T03:42:21;9.30;;;6.57;;
19278;SDS011;9773;47.062;15.446;2022-11-20T03:45:05;7.23;;;6.23;;
19278;SDS011;9773;47.062;15.446;2022-11-20T03:47:32;7.93;;;6.27;;
19278;SDS011;9773;47.062;15.446;2022-11-20T03:49:58;8.73;;;6.87;;
19278;SDS011;9773;47.062;15.446;2022-11-20T03:52:23;9.23;;;6.90;;
19278;SDS011;9773;47.062;15.446;2022-11-20T03:54:49;9.93;;;7.20;;
19278;SDS011;9773;47.062;15.446;2022-11-20T03:57:18;10.00;;;7.27;;
19278;SDS011;9773;47.062;15.446;2022-11-20T03:59:44;8.10;;;6.80;;
19278;SDS011;9773;47.062;15.446;2022-11-20T04:02:10;9.30;;;6.70;;
19278;SDS011;9773;47.062;15.446;2022-11-20T04:04:39;9.23;;;6.67;;
19278;SDS011;9773;47.062;15.446;2022-11-20T04:07:05;8.90;;;7.10;;
19278;SDS011;9773;47.062;15.446;2022-11-20T04:09:31;10.83;;;7.00;;
19278;SDS011;9773;47.062;15.446;2022-11-20T04:11:57;12.10;;;7.23;;
19278;SDS011;9773;47.062;15.446;2022-11-20T04:14:22;9.23;;;7.07;;
19278;SDS011;9773;47.062;15.446;2022-11-20T04:16:52;10.60;;;7.53;;
19278;SDS011;9773;47.062;15.446;2022-11-20T04:19:19;9.70;;;6.60;;
19278;SDS011;9773;47.062;15.446;2022-11-20T04:21:44;8.93;;;7.10;;
19278;SDS011;9773;47.062;15.446;2022-11-20T04:24:11;7.67;;;6.40;;
19278;SDS011;9773;47.062;15.446;2022-11-20T04:26:37;9.80;;;7.20;;
19278;SDS011;9773;47.062;15.446;2022-11-20T04:29:03;7.20;;;5.70;;
19278;SDS011;9773;47.062;15.446;2022-11-20T04:34:10;8.97;;;6.30;;
19278;SDS011;9773;47.062;15.446;2022-11-20T04:36:36;9.10;;;6.73;;
19278;SDS011;9773;47.062;15.446;2022-11-20T04:39:03;8.57;;;6.30;;
19278;SDS011;9773;47.062;15.446;2022-11-20T04:41:35;7.40;;;6.07;;
19278;SDS011;9773;47.062;15.446;2022-11-20T04:44:02;8.43;;;6.30;;
19278;SDS011;9773;47.062;15.446;2022-11-20T04:46:30;7.37;;;6.10;;
19278;SDS011;9773;47.062;15.446;2022-11-20T04:49:00;8.33;;;6.60;;
19278;SDS011;9773;47.062;15.446;2022-11-20T04:51:26;8.43;;;6.57;;
19278;SDS011;9773;47.062;15.446;2022-11-20T04:53:52;8.63;;;6.37;;
19278;SDS011;9773;47.062;15.446;2022-11-20T04:56:18;8.73;;;6.10;;
19278;SDS011;9773;47.062;15.446;2022-11-20T04:58:44;9.53;;;6.20;;
19278;SDS011;9773;47.062;15.446;2022-11-20T05:01:16;7.73;;;6.00;;
19278;SDS011;9773;47.062;15.446;2022-11-20T05:03:47;6.83;;;5.43;;
19278;SDS011;9773;47.062;15.446;2022-11-20T05:06:15;7.57;;;5.70;;
19278;SDS011;9773;47.062;15.446;2022-11-20T05:08:42;8.97;;;6.00;;
19278;SDS011;9773;47.062;15.446;2022-11-20T05:11:12;8.57;;;5.73;;
19278;SDS011;9773;47.062;15.446;2022-11-20T05:13:40;7.17;;;5.77;;
19278;SDS011;9773;47.062;15.446;2022-11-20T05:16:13;9.13;;;6.50;;
19278;SDS011;9773;47.062;15.446;2022-11-20T05:18:43;6.37;;;5.40;;
19278;SDS011;9773;47.062;15.446;2022-11-20T05:21:10;7.93;;;6.37;;
19278;SDS011;9773;47.062;15.446;2022-11-20T05:23:36;7.80;;;6.27;;
19278;SDS011;9773;47.062;15.446;2022-11-20T05:26:03;7.97;;;6.50;;
19278;SDS011;9773;47.062;15.446;2022-11-20T05:28:31;8.00;;;6.07;;
19278;SDS011;9773;47.062;15.446;2022-11-20T05:31:07;9.07;;;6.73;;
19278;SDS011;9773;47.062;15.446;2022-11-20T05:33:35;8.03;;;6.27;;
19278;SDS011;9773;47.062;15.446;2022-11-20T05:36:04;10.67;;;7.07;;
19278;SDS011;9773;47.062;15.446;2022-11-20T05:38:30;8.47;;;6.97;;
19278;SDS011;9773;47.062;15.446;2022-11-20T05:41:09;9.73;;;7.13;;
19278;SDS011;9773;47.062;15.446;2022-11-20T05:43:37;8.63;;;6.93;;
19278;SDS011;9773;47.062;15.446;2022-11-20T05:46:05;9.67;;;7.07;;
19278;SDS011;9773;47.062;15.446;2022-11-20T05:48:32;10.47;;;7.13;;
19278;SDS011;9773;47.062;15.446;2022-11-20T05:51:01;9.73;;;7.10;;
19278;SDS011;9773;47.062;15.446;2022-11-20T05:53:29;11.03;;;7.60;;
19278;SDS011;9773;47.062;15.446;2022-11-20T05:55:57;12.03;;;8.03;;
19278;SDS011;9773;47.062;15.446;2022-11-20T05:58:24;12.10;;;8.27;;
19278;SDS011;9773;47.062;15.446;2022-11-20T06:00:50;13.03;;;8.67;;
19278;SDS011;9773;47.062;15.446;2022-11-20T06:03:16;12.03;;;7.97;;
19278;SDS011;9773;47.062;15.446;2022-11-20T06:05:42;8.97;;;7.57;;
19278;SDS011;9773;47.062;15.446;2022-11-20T06:08:08;9.37;;;7.10;;
19278;SDS011;9773;47.062;15.446;2022-11-20T06:10:33;10.17;;;7.57;;
19278;SDS011;9773;47.062;15.446;2022-11-20T06:12:59;10.87;;;8.20;;
19278;SDS011;9773;47.062;15.446;2022-11-20T06:15:25;11.43;;;7.93;;
19278;SDS011;9773;47.062;15.446;2022-11-20T06:17:52;11.07;;;7.97;;
19278;SDS011;9773;47.062;15.446;2022-11-20T06:20:18;12.17;;;8.00;;
19278;SDS011;9773;47.062;15.446;2022-11-20T06:22:45;11.20;;;7.97;;
19278;SDS011;9773;47.062;15.446;2022-11-20T06:25:10;13.80;;;9.00;;
19278;SDS011;9773;47.062;15.446;2022-11-20T06:27:36;10.33;;;7.63;;
19278;SDS011;9773;47.062;15.446;2022-11-20T06:30:05;13.53;;;8.50;;
19278;SDS011;9773;47.062;15.446;2022-11-20T06:32:32;12.43;;;8.90;;
19278;SDS011;9773;47.062;15.446;2022-11-20T06:34:58;12.93;;;7.43;;
19278;SDS011;9773;47.062;15.446;2022-11-20T06:37:24;11.90;;;7.40;;
19278;SDS011;9773;47.062;15.446;2022-11-20T06:39:50;11.07;;;8.00;;
19278;SDS011;9773;47.062;15.446;2022-11-20T06:42:15;11.17;;;7.20;;
19278;SDS011;9773;47.062;15.446;2022-11-20T06:44:41;9.57;;;6.97;;
19278;SDS011;9773;47.062;15.446;2022-11-20T06:47:07;10.37;;;8.07;;
19278;SDS011;9773;47.062;15.446;2022-11-20T06:49:33;8.87;;;6.67;;
19278;SDS011;9773;47.062;15.446;2022-11-20T06:51:59;10.00;;;6.50;;
19278;SDS011;9773;47.062;15.446;2022-11-20T06:54:25;12.17;;;8.87;;
19278;SDS011;9773;47.062;15.446;2022-11-20T06:56:50;13.57;;;8.20;;
19278;SDS011;9773;47.062;15.446;2022-11-20T06:59:16;11.47;;;7.53;;
19278;SDS011;9773;47.062;15.446;2022-11-20T07:01:42;9.70;;;7.57;;
19278;SDS011;9773;47.062;15.446;2022-11-20T07:04:08;10.00;;;7.97;;
19278;SDS011;9773;47.062;15.446;2022-11-20T07:06:33;11.87;;;7.50;;
19278;SDS011;9773;47.062;15.446;2022-11-20T07:08:59;11.50;;;8.57;;
19278;SDS011;9773;47.062;15.446;2022-11-20T07:11:25;12.27;;;8.10;;
19278;SDS011;9773;47.062;15.446;2022-11-20T07:13:51;8.90;;;7.30;;
19278;SDS011;9773;47.062;15.446;2022-11-20T07:16:17;9.80;;;7.40;;
19278;SDS011;9773;47.062;15.446;2022-11-20T07:18:42;11.17;;;7.73;;
19278;SDS011;9773;47.062;15.446;2022-11-20T07:21:09;10.33;;;7.37;;
19278;SDS011;9773;47.062;15.446;2022-11-20T07:23:35;10.30;;;7.03;;
19278;SDS011;9773;47.062;15.446;2022-11-20T07:26:08;11.30;;;8.13;;
19278;SDS011;9773;47.062;15.446;2022-11-20T07:28:35;9.77;;;6.77;;
19278;SDS011;9773;47.062;15.446;2022-11-20T07:31:01;9.63;;;7.20;;
19278;SDS011;9773;47.062;15.446;2022-11-20T07:33:28;10.57;;;7.77;;
19278;SDS011;9773;47.062;15.446;2022-11-20T07:35:54;10.43;;;7.17;;
19278;SDS011;9773;47.062;15.446;2022-11-20T07:38:22;10.53;;;7.67;;
19278;SDS011;9773;47.062;15.446;2022-11-20T07:40:48;11.67;;;7.70;;
19278;SDS011;9773;47.062;15.446;2022-11-20T07:43:18;11.73;;;7.90;;
19278;SDS011;9773;47.062;15.446;2022-11-20T07:45:43;10.10;;;7.53;;
19278;SDS011;9773;47.062;15.446;2022-11-20T07:48:09;11.03;;;7.73;;
19278;SDS011;9773;47.062;15.446;2022-11-20T07:50:35;12.63;;;8.07;;
19278;SDS011;9773;47.062;15.446;2022-11-20T07:53:02;11.37;;;7.70;;
19278;SDS011;9773;47.062;15.446;2022-11-20T07:55:29;10.80;;;7.43;;
19278;SDS011;9773;47.062;15.446;2022-11-20T07:57:56;12.07;;;7.90;;
19278;SDS011;9773;47.062;15.446;2022-11-20T08:00:22;9.80;;;7.43;;
19278;SDS011;9773;47.062;15.446;2022-11-20T08:02:48;10.03;;;8.07;;
19278;SDS011;9773;47.062;15.446;2022-11-20T08:05:14;9.17;;;7.40;;
19278;SDS011;9773;47.062;15.446;2022-11-20T08:07:41;10.17;;;7.33;;
19278;SDS011;9773;47.062;15.446;2022-11-20T08:10:08;11.37;;;7.53;;
19278;SDS011;9773;47.062;15.446;2022-11-20T08:12:52;11.00;;;7.33;;
19278;SDS011;9773;47.062;15.446;2022-11-20T08:15:39;10.40;;;7.47;;
19278;SDS011;9773;47.062;15.446;2022-11-20T08:18:07;11.53;;;8.10;;
19278;SDS011;9773;47.062;15.446;2022-11-20T08:20:34;12.27;;;8.10;;
19278;SDS011;9773;47.062;15.446;2022-11-20T08:23:01;12.67;;;9.40;;
19278;SDS011;9773;47.062;15.446;2022-11-20T08:25:32;13.23;;;9.33;;
19278;SDS011;9773;47.062;15.446;2022-11-20T08:28:03;11.43;;;8.43;;
19278;SDS011;9773;47.062;15.446;2022-11-20T08:30:31;12.73;;;8.83;;
19278;SDS011;9773;47.062;15.446;2022-11-20T08:33:32;10.20;;;7.90;;
19278;SDS011;9773;47.062;15.446;2022-11-20T08:36:01;10.17;;;7.33;;
19278;SDS011;9773;47.062;15.446;2022-11-20T08:38:28;9.93;;;7.57;;
19278;SDS011;9773;47.062;15.446;2022-11-20T08:40:58;11.50;;;8.13;;
19278;SDS011;9773;47.062;15.446;2022-11-20T08:43:44;11.23;;;8.07;;
19278;SDS011;9773;47.062;15.446;2022-11-20T08:46:10;11.83;;;8.20;;
19278;SDS011;9773;47.062;15.446;2022-11-20T08:48:36;10.13;;;7.97;;
19278;SDS011;9773;47.062;15.446;2022-11-20T08:51:01;13.07;;;8.23;;
19278;SDS011;9773;47.062;15.446;2022-11-20T08:53:27;12.90;;;8.33;;
19278;SDS011;9773;47.062;15.446;2022-11-20T08:55:53;11.33;;;7.83;;
19278;SDS011;9773;47.062;15.446;2022-11-20T08:58:19;10.90;;;8.00;;
19278;SDS011;9773;47.062;15.446;2022-11-20T09:00:45;12.50;;;8.50;;
19278;SDS011;9773;47.062;15.446;2022-11-20T09:03:13;10.20;;;8.07;;
19278;SDS011;9773;47.062;15.446;2022-11-20T09:05:39;11.27;;;8.60;;
19278;SDS011;9773;47.062;15.446;2022-11-20T09:08:05;10.87;;;7.87;;
19278;SDS011;9773;47.062;15.446;2022-11-20T09:10:31;11.73;;;8.83;;
19278;SDS011;9773;47.062;15.446;2022-11-20T09:12:57;11.03;;;7.97;;
19278;SDS011;9773;47.062;15.446;2022-11-20T09:15:24;10.80;;;8.10;;
19278;SDS011;9773;47.062;15.446;2022-11-20T09:17:51;10.23;;;8.00;;
19278;SDS011;9773;47.062;15.446;2022-11-20T09:20:24;10.60;;;8.40;;
19278;SDS011;9773;47.062;15.446;2022-11-20T09:22:50;12.10;;;8.63;;
19278;SDS011;9773;47.062;15.446;2022-11-20T09:25:16;11.27;;;8.17;;
19278;SDS011;9773;47.062;15.446;2022-11-20T09:27:42;14.27;;;9.30;;
19278;SDS011;9773;47.062;15.446;2022-11-20T09:30:09;11.67;;;8.67;;
19278;SDS011;9773;47.062;15.446;2022-11-20T09:32:35;11.57;;;9.13;;
19278;SDS011;9773;47.062;15.446;2022-11-20T09:35:01;10.93;;;8.10;;
19278;SDS011;9773;47.062;15.446;2022-11-20T09:37:27;9.67;;;7.40;;
19278;SDS011;9773;47.062;15.446;2022-11-20T09:39:53;9.97;;;7.73;;
19278;SDS011;9773;47.062;15.446;2022-11-20T09:50:36;11.53;;;8.30;;
19278;SDS011;9773;47.062;15.446;2022-11-20T09:53:25;11.20;;;8.60;;
19278;SDS011;9773;47.062;15.446;2022-11-20T09:55:56;10.27;;;7.83;;
19278;SDS011;9773;47.062;15.446;2022-11-20T09:58:33;10.47;;;8.17;;
19278;SDS011;9773;47.062;15.446;2022-11-20T10:06:28;9.90;;;8.40;;
19278;SDS011;9773;47.062;15.446;2022-11-20T10:09:23;9.30;;;7.67;;
19278;SDS011;9773;47.062;15.446;2022-11-20T10:22:49;9.83;;;7.37;;
19278;SDS011;9773;47.062;15.446;2022-11-20T10:31:03;9.47;;;7.67;;
19278;SDS011;9773;47.062;15.446;2022-11-20T10:33:38;8.97;;;7.20;;
19278;SDS011;9773;47.062;15.446;2022-11-20T10:38:52;10.53;;;8.10;;
19278;SDS011;9773;47.062;15.446;2022-11-20T10:41:37;9.00;;;7.40;;
19278;SDS011;9773;47.062;15.446;2022-11-20T10:44:22;10.43;;;7.87;;
19278;SDS011;9773;47.062;15.446;2022-11-20T10:47:16;9.70;;;7.43;;
19278;SDS011;9773;47.062;15.446;2022-11-20T10:49:44;9.43;;;7.87;;
19278;SDS011;9773;47.062;15.446;2022-11-20T10:52:31;10.93;;;7.93;;
19278;SDS011;9773;47.062;15.446;2022-11-20T11:00:36;11.00;;;8.40;;
19278;SDS011;9773;47.062;15.446;2022-11-20T11:03:02;12.10;;;9.40;;
19278;SDS011;9773;47.062;15.446;2022-11-20T11:08:21;12.83;;;9.73;;
19278;SDS011;9773;47.062;15.446;2022-11-20T11:10:51;11.20;;;8.60;;
19278;SDS011;9773;47.062;15.446;2022-11-20T11:13:22;11.70;;;8.97;;
19278;SDS011;9773;47.062;15.446;2022-11-20T11:15:53;10.40;;;8.40;;
19278;SDS011;9773;47.062;15.446;2022-11-20T11:18:26;11.17;;;8.83;;
19278;SDS011;9773;47.062;15.446;2022-11-20T11:20:55;12.80;;;9.17;;
19278;SDS011;9773;47.062;15.446;2022-11-20T11:23:34;10.93;;;9.23;;
19278;SDS011;9773;47.062;15.446;2022-11-20T11:26:02;11.13;;;8.97;;
19278;SDS011;9773;47.062;15.446;2022-11-20T11:28:29;12.47;;;9.67;;
19278;SDS011;9773;47.062;15.446;2022-11-20T11:30:55;10.83;;;9.17;;
19278;SDS011;9773;47.062;15.446;2022-11-20T11:33:22;12.23;;;9.27;;
19278;SDS011;9773;47.062;15.446;2022-11-20T11:35:54;12.17;;;9.17;;
19278;SDS011;9773;47.062;15.446;2022-11-20T11:41:04;10.80;;;8.47;;
19278;SDS011;9773;47.062;15.446;2022-11-20T11:43:32;8.57;;;7.67;;
19278;SDS011;9773;47.062;15.446;2022-11-20T11:54:05;11.83;;;8.57;;
19278;SDS011;9773;47.062;15.446;2022-11-20T11:56:44;11.73;;;9.23;;
19278;SDS011;9773;47.062;15.446;2022-11-20T11:59:12;10.03;;;8.23;;
19278;SDS011;9773;47.062;15.446;2022-11-20T12:01:53;8.13;;;7.17;;
19278;SDS011;9773;47.062;15.446;2022-11-20T12:07:20;13.03;;;9.33;;
19278;SDS011;9773;47.062;15.446;2022-11-20T12:09:57;9.50;;;8.50;;
19278;SDS011;9773;47.062;15.446;2022-11-20T12:12:33;10.27;;;7.60;;
19278;SDS011;9773;47.062;15.446;2022-11-20T12:15:04;9.80;;;7.50;;
19278;SDS011;9773;47.062;15.446;2022-11-20T12:17:35;8.20;;;7.30;;
19278;SDS011;9773;47.062;15.446;2022-11-20T12:20:00;8.47;;;7.57;;
19278;SDS011;9773;47.062;15.446;2022-11-20T12:25:07;8.23;;;7.17;;
19278;SDS011;9773;47.062;15.446;2022-11-20T12:30:09;6.67;;;6.00;;
19278;SDS011;9773;47.062;15.446;2022-11-20T12:38:27;7.20;;;6.47;;
19278;SDS011;9773;47.062;15.446;2022-11-20T13:07:59;4.60;;;4.20;;
19278;SDS011;9773;47.062;15.446;2022-11-20T13:13:19;4.50;;;4.10;;
19278;SDS011;9773;47.062;15.446;2022-11-20T13:15:56;4.07;;;3.70;;
19278;SDS011;9773;47.062;15.446;2022-11-20T13:18:38;4.30;;;4.00;;
19278;SDS011;9773;47.062;15.446;2022-11-20T13:21:13;3.73;;;3.43;;
19278;SDS011;9773;47.062;15.446;2022-11-20T13:23:44;4.67;;;4.20;;
19278;SDS011;9773;47.062;15.446;2022-11-20T13:26:15;4.47;;;4.07;;
19278;SDS011;9773;47.062;15.446;2022-11-20T13:28:41;3.03;;;2.73;;
19278;SDS011;9773;47.062;15.446;2022-11-20T13:34:34;3.07;;;2.87;;
19278;SDS011;9773;47.062;15.446;2022-11-20T13:37:00;2.67;;;2.47;;
19278;SDS011;9773;47.062;15.446;2022-11-20T13:39:30;4.33;;;3.13;;
19278;SDS011;9773;47.062;15.446;2022-11-20T13:41:58;3.33;;;3.03;;
19278;SDS011;9773;47.062;15.446;2022-11-20T13:44:50;3.53;;;3.27;;
19278;SDS011;9773;47.062;15.446;2022-11-20T13:49:51;3.23;;;3.03;;
19278;SDS011;9773;47.062;15.446;2022-11-20T13:57:40;3.37;;;3.07;;
19278;SDS011;9773;47.062;15.446;2022-11-20T14:00:28;3.33;;;3.10;;
19278;SDS011;9773;47.062;15.446;2022-11-20T14:05:45;3.57;;;3.27;;
19278;SDS011;9773;47.062;15.446;2022-11-20T14:08:42;4.20;;;3.80;;
19278;SDS011;9773;47.062;15.446;2022-11-20T14:14:46;3.53;;;3.23;;
19278;SDS011;9773;47.062;15.446;2022-11-20T14:16:36;3.60;;;3.40;;
19278;SDS011;9773;47.062;15.446;2022-11-20T14:22:09;3.53;;;3.30;;
19278;SDS011;9773;47.062;15.446;2022-11-20T14:24:43;3.83;;;3.53;;
19278;SDS011;9773;47.062;15.446;2022-11-20T14:27:12;3.73;;;3.43;;
19278;SDS011;9773;47.062;15.446;2022-11-20T14:29:40;3.87;;;3.57;;
19278;SDS011;9773;47.062;15.446;2022-11-20T14:32:08;4.00;;;3.70;;
19278;SDS011;9773;47.062;15.446;2022-11-20T14:34:39;3.83;;;3.53;;
19278;SDS011;9773;47.062;15.446;2022-11-20T14:37:10;4.20;;;3.80;;
19278;SDS011;9773;47.062;15.446;2022-11-20T14:39:40;3.47;;;3.27;;
19278;SDS011;9773;47.062;15.446;2022-11-20T14:42:17;4.07;;;3.77;;
19278;SDS011;9773;47.062;15.446;2022-11-20T14:44:51;3.70;;;3.40;;
19278;SDS011;9773;47.062;15.446;2022-11-20T14:47:24;3.80;;;3.50;;
19278;SDS011;9773;47.062;15.446;2022-11-20T14:49:52;4.53;;;4.13;;
19278;SDS011;9773;47.062;15.446;2022-11-20T14:52:21;5.67;;;3.80;;
19278;SDS011;9773;47.062;15.446;2022-11-20T14:54:49;4.27;;;3.97;;
19278;SDS011;9773;47.062;15.446;2022-11-20T14:57:24;5.03;;;4.23;;
19278;SDS011;9773;47.062;15.446;2022-11-20T15:00:03;4.47;;;4.07;;
19278;SDS011;9773;47.062;15.446;2022-11-20T15:02:29;4.23;;;3.93;;
19278;SDS011;9773;47.062;15.446;2022-11-20T15:04:59;4.70;;;4.30;;
19278;SDS011;9773;47.062;15.446;2022-11-20T15:07:33;4.33;;;4.03;;
19278;SDS011;9773;47.062;15.446;2022-11-20T15:10:03;4.17;;;3.87;;
19278;SDS011;9773;47.062;15.446;2022-11-20T15:12:34;4.80;;;4.40;;
19278;SDS011;9773;47.062;15.446;2022-11-20T15:15:02;4.47;;;4.07;;
19278;SDS011;9773;47.062;15.446;2022-11-20T15:17:30;4.73;;;4.33;;
19278;SDS011;9773;47.062;15.446;2022-11-20T15:20:00;5.47;;;4.97;;
19278;SDS011;9773;47.062;15.446;2022-11-20T15:22:28;5.53;;;4.80;;
19278;SDS011;9773;47.062;15.446;2022-11-20T15:24:54;5.07;;;4.57;;
19278;SDS011;9773;47.062;15.446;2022-11-20T15:27:20;5.57;;;4.47;;
19278;SDS011;9773;47.062;15.446;2022-11-20T15:29:45;4.70;;;4.40;;
19278;SDS011;9773;47.062;15.446;2022-11-20T15:32:11;6.00;;;5.40;;
19278;SDS011;9773;47.062;15.446;2022-11-20T15:34:37;6.70;;;6.00;;
19278;SDS011;9773;47.062;15.446;2022-11-20T15:37:03;5.93;;;5.33;;
19278;SDS011;9773;47.062;15.446;2022-11-20T15:39:28;6.93;;;5.93;;
19278;SDS011;9773;47.062;15.446;2022-11-20T15:41:54;7.60;;;6.13;;
19278;SDS011;9773;47.062;15.446;2022-11-20T15:44:20;6.17;;;5.67;;
19278;SDS011;9773;47.062;15.446;2022-11-20T15:46:45;7.33;;;5.97;;
19278;SDS011;9773;47.062;15.446;2022-11-20T15:49:15;7.20;;;6.50;;
19278;SDS011;9773;47.062;15.446;2022-11-20T15:51:44;7.77;;;6.63;;
19278;SDS011;9773;47.062;15.446;2022-11-20T15:54:17;7.07;;;6.37;;
19278;SDS011;9773;47.062;15.446;2022-11-20T15:56:47;6.93;;;6.27;;
19278;SDS011;9773;47.062;15.446;2022-11-20T15:59:14;7.63;;;6.43;;
19278;SDS011;9773;47.062;15.446;2022-11-20T16:01:40;8.07;;;6.83;;
19278;SDS011;9773;47.062;15.446;2022-11-20T16:04:14;14.17;;;11.00;;
19278;SDS011;9773;47.062;15.446;2022-11-20T16:06:40;110.27;;;85.87;;
19278;SDS011;9773;47.062;15.446;2022-11-20T16:09:06;46.10;;;36.93;;
19278;SDS011;9773;47.062;15.446;2022-11-20T16:11:32;32.10;;;26.77;;
19278;SDS011;9773;47.062;15.446;2022-11-20T16:14:00;44.70;;;36.30;;
19278;SDS011;9773;47.062;15.446;2022-11-20T16:16:44;39.57;;;30.63;;
19278;SDS011;9773;47.062;15.446;2022-11-20T16:19:10;29.90;;;24.50;;
19278;SDS011;9773;47.062;15.446;2022-11-20T16:21:41;51.83;;;41.63;;
19278;SDS011;9773;47.062;15.446;2022-11-20T16:24:08;54.30;;;43.23;;
19278;SDS011;9773;47.062;15.446;2022-11-20T16:26:35;33.23;;;26.27;;
19278;SDS011;9773;47.062;15.446;2022-11-20T16:29:02;25.33;;;21.97;;
19278;SDS011;9773;47.062;15.446;2022-11-20T16:31:30;15.47;;;13.03;;
19278;SDS011;9773;47.062;15.446;2022-11-20T16:33:57;38.27;;;34.17;;
19278;SDS011;9773;47.062;15.446;2022-11-20T16:36:28;22.00;;;19.70;;
19278;SDS011;9773;47.062;15.446;2022-11-20T16:38:55;13.97;;;12.60;;
19278;SDS011;9773;47.062;15.446;2022-11-20T16:41:26;12.33;;;11.13;;
19278;SDS011;9773;47.062;15.446;2022-11-20T16:43:54;9.90;;;8.90;;
19278;SDS011;9773;47.062;15.446;2022-11-20T16:46:25;10.43;;;9.33;;
19278;SDS011;9773;47.062;15.446;2022-11-20T16:48:53;11.40;;;9.67;;
19278;SDS011;9773;47.062;15.446;2022-11-20T16:51:20;11.97;;;9.20;;